Time;durP1;ratioP1;P1;durP2;ratioP2;P2;SDS_P1;SDS_P2;PMS_P1;PMS_P2;Temp;Humidity;BMP_temperature;BMP_pressure;BME280_temperature;BME280_humidity;BME280_pressure;Samples;Min_cycle;Max_cycle;Signal;HPM_P1;HPM_P2
2023/02/26 09:35:12;;;;;;;;;;;22.70;52.40;;;;;;694770;27;1435;-54
2023/02/26 09:35:33;;;;;;;;;;;21.80;44.90;;;;;;692445;28;1629;-52
2023/02/26 09:35:53;;;;;;;;;;;21.60;44.80;;;;;;692049;28;2069;-51
2023/02/26 09:36:14;;;;;;;;;;;21.60;45.00;;;;;;692831;28;1253;-55
2023/02/26 09:36:36;;;;;;;;;;;21.60;45.60;;;;;;692937;28;1559;-55
2023/02/26 09:36:56;;;;;;;;;;;21.50;45.80;;;;;;692145;28;1924;-57
2023/02/26 09:37:20;;;;;;;;;;;21.50;45.70;;;;;;692672;28;1482;-54
2023/02/26 09:37:43;;;;;;;;;;;21.40;45.80;;;;;;692534;28;1617;-55
2023/02/26 09:38:04;;;;;;;;;;;21.40;45.70;;;;;;692751;28;1525;-56
2023/02/26 09:38:24;;;;;;;;;;;21.30;45.70;;;;;;692625;28;1468;-56
2023/02/26 09:38:46;;;;;;;;;;;21.30;45.50;;;;;;692270;28;1798;-50
2023/02/26 09:42:07;;;;;;;;;;;22.40;53.10;;;;;;695974;28;1765;-52
2023/02/26 09:42:27;;;;;;;;;;;22.70;55.20;;;;;;694803;28;1831;-43
2023/02/26 09:42:51;;;;;;;;;;;23.00;54.60;;;;;;695264;28;1563;-56
2023/02/26 09:43:26;;;;;;;;;;;23.20;54.50;;;;;;695959;27;1385;-48
2023/02/26 09:43:53;;;;;;;;;;;23.40;52.20;;;;;;694776;28;1453;-50
2023/02/26 09:44:19;;;;;;;;;;;23.60;49.60;;;;;;695172;28;1436;-51
2023/02/26 09:44:40;;;;;;;;;;;23.90;49.40;;;;;;695460;28;1543;-46
2023/02/26 09:45:01;;;;;;;;;;;24.10;49.20;;;;;;695411;28;1582;-45
2023/02/26 09:45:36;;;;;;;;;;;24.30;48.80;;;;;;694816;28;1560;-54
2023/02/26 09:45:59;;;;;;;;;;;24.60;47.70;;;;;;695289;28;1425;-69
2023/02/26 09:53:37;;;;;;;;;;;24.60;51.70;;;;;;695899;27;1303;-58
2023/02/26 09:53:59;;;;;;;;;;;24.70;50.20;;;;;;694836;28;1298;-66
2023/02/26 09:54:22;;;;;;;;;;;24.60;47.60;;;;;;695008;28;1226;-62
2023/02/26 09:54:48;;;;;;;;;;;24.70;46.50;;;;;;694995;28;1269;-61
2023/02/26 09:55:14;;;;;;;;;;;24.60;44.70;;;;;;694713;28;1361;-62
2023/02/26 09:55:46;;;;;;;;;;;24.40;42.80;;;;;;694775;28;1252;-61
2023/02/26 09:56:11;;;;;;;;;;;24.20;41.80;;;;;;695088;28;1737;-60
2023/02/26 09:56:33;;;;;;;;;;;23.90;42.10;;;;;;695198;28;1408;-60
2023/02/26 09:56:55;;;;;;;;;;;23.80;42.80;;;;;;700040;28;1402;-61
2023/02/26 09:57:28;;;;;;;;;;;23.60;42.70;;;;;;699750;28;1467;-63
2023/02/26 09:57:51;;;;;;;;;;;23.50;42.60;;;;;;699670;28;1511;-64
2023/02/26 09:58:20;;;;;;;;;;;23.30;43.00;;;;;;699544;28;1257;-62
2023/02/26 09:58:42;;;;;;;;;;;23.20;42.80;;;;;;700088;28;1382;-65
2023/02/26 09:59:02;;;;;;;;;;;23.10;44.90;;;;;;699903;28;1357;-62
2023/02/26 09:59:24;;;;;;;;;;;23.00;43.80;;;;;;699536;28;1358;-58
2023/02/26 09:59:44;;;;;;;;;;;23.00;43.60;;;;;;700234;28;1400;-59
2023/02/26 10:00:20;;;;;;;;;;;22.90;45.30;;;;;;700156;28;1337;-64
2023/02/26 10:00:41;;;;;;;;;;;22.90;45.00;;;;;;700099;28;1241;-62
2023/02/26 10:01:07;;;;;;;;;;;22.80;45.70;;;;;;700427;28;1375;-61
2023/02/26 10:01:31;;;;;;;;;;;22.70;45.00;;;;;;699837;28;1328;-62
2023/02/26 10:01:58;;;;;;;;;;;22.60;45.10;;;;;;699816;28;1342;-63
2023/02/26 10:02:39;;;;;;;;;;;22.60;44.60;;;;;;699637;28;1520;-63
2023/02/26 10:03:11;;;;;;;;;;;22.50;44.40;;;;;;699598;28;1699;-63
2023/02/26 10:03:37;;;;;;;;;;;22.40;44.10;;;;;;699736;28;1210;-63
2023/02/26 10:04:07;;;;;;;;;;;22.30;43.90;;;;;;700026;28;1301;-64
2023/02/26 10:04:46;;;;;;;;;;;22.30;44.40;;;;;;699993;28;1262;-64
2023/02/26 10:05:29;;;;;;;;;;;22.20;43.90;;;;;;699865;28;1285;-63
2023/02/26 10:06:08;;;;;;;;;;;22.10;44.00;;;;;;698901;28;2055;-63
2023/02/26 10:06:47;;;;;;;;;;;22.10;45.00;;;;;;699835;28;1462;-62
2023/02/26 10:22:34;;;;;;;;;;;22.90;51.10;;;;;;663350;27;1288471;-45
2023/02/26 10:22:54;;;;;;;;;;;23.00;54.90;;;;;;706157;27;2080;-58
2023/02/26 10:23:21;;;;;;;;;;;23.10;50.20;;;;;;706313;27;1427;-69
2023/02/26 10:23:42;;;;;;;;;;;23.10;48.70;;;;;;706181;27;1545;-60
2023/02/26 10:24:07;;;;;;;;;;;23.20;48.50;;;;;;706218;27;1517;-62
2023/02/26 10:24:31;;;;;;;;;;;23.20;47.70;;;;;;706390;27;1340;-63
2023/02/26 10:24:56;;;;;;;;;;;23.20;47.60;;;;;;706115;27;1748;-60
2023/02/26 10:25:21;;;;;;;;;;;23.20;47.30;;;;;;706387;27;1560;-61
2023/02/26 10:25:45;;;;;;;;;;;23.30;47.60;;;;;;706780;27;1282;-60
2023/02/26 10:26:06;;;;;;;;;;;23.30;47.80;;;;;;706456;27;1415;-61
2023/02/26 10:26:31;;;;;;;;;;;23.30;47.40;;;;;;706651;27;1422;-62
2023/02/26 10:26:57;;;;;;;;;;;23.30;47.10;;;;;;706308;27;1469;-60
2023/02/26 10:27:44;;;;;;;;;;;23.40;47.00;;;;;;706424;27;1290;-60
2023/02/26 10:28:04;;;;;;;;;;;23.40;47.00;;;;;;694744;28;1304;-60
2023/02/26 10:28:28;;;;;;;;;;;23.50;46.50;;;;;;694075;28;1387;-60
2023/02/26 10:46:43;;;;;;;;;;;18.90;46.80;;;;;;1370496;27;1299035;-84
2023/02/26 11:44:41;;;;;;;;;;;19.20;43.80;;;;;;702052;27;1353;-65
2023/02/26 11:45:03;;;;;;;;;;;19.60;40.00;;;;;;699810;28;1207;-62
2023/02/26 11:45:24;;;;;;;;;;;19.40;40.20;;;;;;702159;28;1270;-62
2023/02/26 11:45:47;;;;;;;;;;;19.50;40.20;;;;;;702161;28;1250;-62
2023/02/26 11:46:08;;;;;;;;;;;19.40;40.10;;;;;;702158;28;1206;-62
2023/02/26 11:46:29;;;;;;;;;;;19.40;40.20;;;;;;702106;28;1322;-62
2023/02/26 11:46:51;;;;;;;;;;;19.40;40.30;;;;;;701992;28;1492;-63
2023/02/26 11:47:27;;;;;;;;;;;19.40;40.00;;;;;;701897;28;1210;-62
2023/02/26 11:47:49;;;;;;;;;;;19.40;39.70;;;;;;702277;28;780;-62
2023/02/26 11:48:12;;;;;;;;;;;19.50;40.00;;;;;;702195;28;907;-63
